EJU59UB LIRN-LFMN
Flight info
| Callsign | EJU59UB |
|---|---|
| Flight time | N/A |
| Altitude | 34000 |
| Route | VEXUV DCT PNZ DCT RIFFI DCT ELVIN DCT TOBGA/N0418F300 DCT DOBIM DCT AKUTI R16 KERIT |
| Aircraft | A320/M-SDE2E3FGHIJ1RWXYZ/LB1 |
Departure
| Time | 2026-05-06 01:35 |
|---|---|
| Airport | Naples International Airport (LIRN) |
Arrival
| Time | N/A |
|---|---|
| Airport | Nice-Côte d'Azur Airport (LFMN) |
| Time | Latitude | Longitude | Altitude | Speed | Heading |
|---|---|---|---|---|---|
| 2026-05-06 00:48 | 40.87891 | 14.28166 | 293 ft | 0 kts | 164° |
| 2026-05-06 01:26 | 40.87905 | 14.28160 | 296 ft | 4 kts | 154° |
| 2026-05-06 01:26 | 40.87926 | 14.28141 | 297 ft | 4 kts | 124° |
| 2026-05-06 01:26 | 40.87935 | 14.28111 | 296 ft | 4 kts | 91° |
| 2026-05-06 01:26 | 40.87931 | 14.28076 | 298 ft | 4 kts | 63° |
| 2026-05-06 01:27 | 40.87923 | 14.28059 | 299 ft | 0 kts | 50° |
| 2026-05-06 01:29 | 40.87929 | 14.28068 | 295 ft | 3 kts | 50° |
| 2026-05-06 01:29 | 40.87943 | 14.28091 | 297 ft | 4 kts | 48° |
| 2026-05-06 01:30 | 40.87975 | 14.28115 | 294 ft | 8 kts | 21° |
| 2026-05-06 01:30 | 40.88032 | 14.28162 | 291 ft | 12 kts | 53° |
| 2026-05-06 01:30 | 40.88066 | 14.28277 | 288 ft | 16 kts | 93° |
| 2026-05-06 01:30 | 40.88051 | 14.28438 | 286 ft | 19 kts | 97° |
| 2026-05-06 01:31 | 40.88045 | 14.28602 | 287 ft | 14 kts | 64° |
| 2026-05-06 01:31 | 40.88111 | 14.28719 | 281 ft | 18 kts | 54° |
| 2026-05-06 01:31 | 40.88195 | 14.28863 | 277 ft | 22 kts | 52° |
| 2026-05-06 01:31 | 40.88285 | 14.29022 | 273 ft | 19 kts | 52° |
| 2026-05-06 01:32 | 40.88375 | 14.29178 | 269 ft | 23 kts | 53° |
| 2026-05-06 01:32 | 40.88472 | 14.29346 | 265 ft | 18 kts | 51° |
| 2026-05-06 01:32 | 40.88560 | 14.29497 | 261 ft | 23 kts | 52° |
| 2026-05-06 01:32 | 40.88645 | 14.29645 | 256 ft | 21 kts | 53° |
| 2026-05-06 01:33 | 40.88730 | 14.29792 | 252 ft | 19 kts | 52° |
| 2026-05-06 01:33 | 40.88814 | 14.29938 | 247 ft | 21 kts | 52° |
| 2026-05-06 01:33 | 40.88905 | 14.30095 | 242 ft | 24 kts | 52° |
| 2026-05-06 01:33 | 40.89002 | 14.30261 | 237 ft | 26 kts | 52° |
| 2026-05-06 01:34 | 40.89097 | 14.30422 | 229 ft | 19 kts | 48° |
| 2026-05-06 01:34 | 40.89205 | 14.30377 | 227 ft | 21 kts | 270° |
| 2026-05-06 01:34 | 40.89168 | 14.30259 | 231 ft | 22 kts | 243° |
| 2026-05-06 01:34 | 40.89051 | 14.30025 | 240 ft | 43 kts | 237° |
| 2026-05-06 01:35 | 40.88878 | 14.29658 | 252 ft | 100 kts | 238° |
| 2026-05-06 01:35 | 40.88342 | 14.28546 | 305 ft | 170 kts | 239° |
| 2026-05-06 01:35 | 40.87743 | 14.27318 | 1238 ft | 153 kts | 237° |
| 2026-05-06 01:35 | 40.86979 | 14.26294 | 1663 ft | 175 kts | 199° |
| 2026-05-06 01:36 | 40.85730 | 14.26292 | 2141 ft | 188 kts | 167° |
| 2026-05-06 01:36 | 40.84430 | 14.26609 | 2724 ft | 191 kts | 172° |
| 2026-05-06 01:36 | 40.83107 | 14.26859 | 3320 ft | 195 kts | 174° |
| 2026-05-06 01:36 | 40.81750 | 14.27085 | 3930 ft | 197 kts | 175° |
| 2026-05-06 01:37 | 40.80384 | 14.27298 | 4580 ft | 198 kts | 176° |
| 2026-05-06 01:37 | 40.79006 | 14.27503 | 5206 ft | 200 kts | 177° |
| 2026-05-06 01:37 | 40.77614 | 14.27706 | 5821 ft | 202 kts | 178° |
| 2026-05-06 01:37 | 40.76214 | 14.27906 | 6441 ft | 203 kts | 179° |
| 2026-05-06 01:38 | 40.74802 | 14.28102 | 7031 ft | 205 kts | 179° |
| 2026-05-06 01:38 | 40.73381 | 14.28296 | 7617 ft | 206 kts | 179° |
| 2026-05-06 01:38 | 40.71949 | 14.28397 | 8184 ft | 206 kts | 191° |
| 2026-05-06 01:38 | 40.70579 | 14.27870 | 8654 ft | 210 kts | 211° |
| 2026-05-06 01:39 | 40.69335 | 14.26648 | 8774 ft | 236 kts | 224° |
| 2026-05-06 01:39 | 40.68042 | 14.25138 | 9071 ft | 260 kts | 223° |
| 2026-05-06 01:39 | 40.66617 | 14.23508 | 9321 ft | 283 kts | 223° |
| 2026-05-06 01:39 | 40.65131 | 14.21824 | 10186 ft | 281 kts | 223° |
| 2026-05-06 01:40 | 40.63644 | 14.20147 | 11050 ft | 280 kts | 222° |
| 2026-05-06 01:40 | 40.62161 | 14.18470 | 11816 ft | 283 kts | 222° |
| 2026-05-06 01:40 | 40.60661 | 14.16768 | 12573 ft | 286 kts | 222° |
| 2026-05-06 01:40 | 40.59145 | 14.15044 | 13318 ft | 289 kts | 222° |
| 2026-05-06 01:41 | 40.57616 | 14.13306 | 14030 ft | 293 kts | 222° |
| 2026-05-06 01:41 | 40.56069 | 14.11548 | 14693 ft | 295 kts | 222° |
| 2026-05-06 01:41 | 40.54511 | 14.09778 | 15364 ft | 297 kts | 222° |
| 2026-05-06 01:41 | 40.52938 | 14.07995 | 16034 ft | 299 kts | 222° |
| 2026-05-06 01:42 | 40.51381 | 14.06168 | 16694 ft | 301 kts | 228° |
| 2026-05-06 01:42 | 40.50121 | 14.03973 | 17365 ft | 302 kts | 241° |
| 2026-05-06 01:42 | 40.49276 | 14.01435 | 18008 ft | 304 kts | 249° |
| 2026-05-06 01:42 | 40.48546 | 13.98817 | 18626 ft | 306 kts | 250° |
| 2026-05-06 01:43 | 40.47808 | 13.96187 | 19195 ft | 308 kts | 250° |
| 2026-05-06 01:43 | 40.47053 | 13.93504 | 19771 ft | 310 kts | 250° |
| 2026-05-06 01:43 | 40.46310 | 13.90877 | 20331 ft | 312 kts | 250° |
| 2026-05-06 01:43 | 40.45539 | 13.88163 | 20898 ft | 315 kts | 250° |
| 2026-05-06 01:44 | 40.44781 | 13.85498 | 21457 ft | 317 kts | 250° |
| 2026-05-06 01:44 | 40.44011 | 13.82783 | 22057 ft | 317 kts | 250° |
| 2026-05-06 01:44 | 40.43396 | 13.79996 | 22616 ft | 320 kts | 261° |
| 2026-05-06 01:44 | 40.43377 | 13.77068 | 23146 ft | 324 kts | 276° |
| 2026-05-06 01:45 | 40.43991 | 13.74171 | 23421 ft | 340 kts | 291° |
| 2026-05-06 01:45 | 40.45299 | 13.71481 | 23560 ft | 360 kts | 304° |
| 2026-05-06 01:45 | 40.46903 | 13.68895 | 23828 ft | 368 kts | 304° |
| 2026-05-06 01:45 | 40.48526 | 13.66272 | 24225 ft | 372 kts | 304° |
| 2026-05-06 01:46 | 40.50184 | 13.63580 | 24686 ft | 375 kts | 304° |
| 2026-05-06 01:46 | 40.51807 | 13.60934 | 25122 ft | 378 kts | 304° |
| 2026-05-06 01:46 | 40.53457 | 13.58231 | 25560 ft | 380 kts | 304° |
| 2026-05-06 01:46 | 40.55118 | 13.55506 | 26017 ft | 383 kts | 304° |
| 2026-05-06 01:47 | 40.56787 | 13.52768 | 26446 ft | 385 kts | 304° |
| 2026-05-06 01:47 | 40.58464 | 13.50012 | 26861 ft | 387 kts | 304° |
| 2026-05-06 01:47 | 40.60151 | 13.47237 | 27264 ft | 390 kts | 304° |
| 2026-05-06 01:47 | 40.61872 | 13.44403 | 27658 ft | 392 kts | 304° |
| 2026-05-06 01:48 | 40.63556 | 13.41624 | 28040 ft | 395 kts | 304° |
| 2026-05-06 01:48 | 40.65274 | 13.38788 | 28404 ft | 397 kts | 304° |
| 2026-05-06 01:48 | 40.67003 | 13.35932 | 28785 ft | 400 kts | 304° |
| 2026-05-06 01:48 | 40.68740 | 13.33064 | 29141 ft | 402 kts | 304° |
| 2026-05-06 01:49 | 40.70491 | 13.30176 | 29504 ft | 404 kts | 304° |
| 2026-05-06 01:49 | 40.72269 | 13.27233 | 29848 ft | 406 kts | 304° |
| 2026-05-06 01:49 | 40.73963 | 13.24424 | 30176 ft | 409 kts | 304° |
| 2026-05-06 01:49 | 40.75733 | 13.21489 | 30463 ft | 411 kts | 304° |
| 2026-05-06 01:50 | 40.77519 | 13.18525 | 30747 ft | 413 kts | 304° |
| 2026-05-06 01:50 | 40.79308 | 13.15551 | 31026 ft | 415 kts | 304° |
| 2026-05-06 01:50 | 40.81104 | 13.12562 | 31343 ft | 416 kts | 304° |
| 2026-05-06 01:50 | 40.82895 | 13.09581 | 31803 ft | 413 kts | 303° |
| 2026-05-06 01:51 | 40.84674 | 13.06617 | 32234 ft | 411 kts | 303° |
| 2026-05-06 01:51 | 40.86443 | 13.03665 | 32629 ft | 410 kts | 303° |
| 2026-05-06 01:51 | 40.88208 | 13.00714 | 33011 ft | 409 kts | 303° |
| 2026-05-06 01:51 | 40.89969 | 12.97763 | 33392 ft | 408 kts | 303° |
| 2026-05-06 01:52 | 40.91798 | 12.94892 | 33765 ft | 411 kts | 309° |
| 2026-05-06 01:52 | 40.93800 | 12.92194 | 33999 ft | 411 kts | 309° |
| 2026-05-06 01:52 | 40.95780 | 12.89525 | 34031 ft | 399 kts | 309° |
| 2026-05-06 01:52 | 40.97687 | 12.86959 | 34030 ft | 385 kts | 309° |
| 2026-05-06 01:53 | 41.01375 | 12.81969 | 34032 ft | 376 kts | 309° |
| 2026-05-06 01:53 | 41.05012 | 12.77017 | 34039 ft | 375 kts | 309° |
| 2026-05-06 01:54 | 41.08645 | 12.72055 | 34029 ft | 374 kts | 308° |
| 2026-05-06 01:54 | 41.12271 | 12.67118 | 34030 ft | 374 kts | 308° |
| 2026-05-06 01:55 | 41.15892 | 12.62182 | 34023 ft | 373 kts | 308° |
| 2026-05-06 01:55 | 41.19507 | 12.57234 | 34022 ft | 373 kts | 308° |
| 2026-05-06 01:56 | 41.23122 | 12.52287 | 34021 ft | 373 kts | 308° |
| 2026-05-06 01:56 | 41.26740 | 12.47343 | 34017 ft | 373 kts | 308° |
| 2026-05-06 01:57 | 41.30355 | 12.42391 | 34016 ft | 373 kts | 308° |
| 2026-05-06 01:57 | 41.33962 | 12.37438 | 34042 ft | 373 kts | 308° |
| 2026-05-06 01:58 | 41.37558 | 12.32480 | 34031 ft | 372 kts | 308° |
| 2026-05-06 01:58 | 41.41154 | 12.27526 | 34026 ft | 372 kts | 308° |
| 2026-05-06 01:59 | 41.44745 | 12.22575 | 34022 ft | 371 kts | 308° |
| 2026-05-06 01:59 | 41.48329 | 12.17610 | 34012 ft | 371 kts | 308° |
| 2026-05-06 02:00 | 41.51819 | 12.12508 | 34008 ft | 369 kts | 304° |
| 2026-05-06 02:00 | 41.55072 | 12.07285 | 34007 ft | 368 kts | 303° |
| 2026-05-06 02:01 | 41.58343 | 12.01969 | 34032 ft | 368 kts | 303° |
| 2026-05-06 02:01 | 41.61603 | 11.96748 | 34021 ft | 368 kts | 303° |
| 2026-05-06 02:02 | 41.64925 | 11.91473 | 34000 ft | 369 kts | 303° |
| 2026-05-06 02:02 | 41.68201 | 11.86260 | 34004 ft | 369 kts | 303° |
| 2026-05-06 02:03 | 41.71491 | 11.81000 | 34005 ft | 368 kts | 303° |
| 2026-05-06 02:03 | 41.74778 | 11.75740 | 34007 ft | 368 kts | 303° |
| 2026-05-06 02:04 | 41.78080 | 11.70437 | 33989 ft | 368 kts | 303° |
| 2026-05-06 02:04 | 41.81357 | 11.65166 | 34034 ft | 368 kts | 303° |
| 2026-05-06 02:05 | 41.84578 | 11.59991 | 34015 ft | 360 kts | 302° |
| 2026-05-06 02:05 | 41.87791 | 11.54807 | 34004 ft | 358 kts | 302° |
| 2026-05-06 02:06 | 41.90952 | 11.49694 | 34003 ft | 358 kts | 302° |
| 2026-05-06 02:06 | 41.94155 | 11.44511 | 33987 ft | 358 kts | 302° |
| 2026-05-06 02:07 | 41.97331 | 11.39361 | 33985 ft | 358 kts | 302° |
| 2026-05-06 02:07 | 42.00510 | 11.34204 | 33977 ft | 358 kts | 302° |
| 2026-05-06 02:08 | 42.03688 | 11.29044 | 33977 ft | 358 kts | 302° |
| 2026-05-06 02:08 | 42.06865 | 11.23868 | 33976 ft | 359 kts | 302° |
| 2026-05-06 02:09 | 42.10045 | 11.18664 | 33966 ft | 361 kts | 302° |
| 2026-05-06 02:09 | 42.13241 | 11.13434 | 33958 ft | 362 kts | 302° |
| 2026-05-06 02:10 | 42.16450 | 11.08187 | 33953 ft | 363 kts | 302° |
| 2026-05-06 02:10 | 42.19660 | 11.02931 | 33955 ft | 363 kts | 302° |
| 2026-05-06 02:11 | 42.22864 | 10.97663 | 33950 ft | 363 kts | 302° |
| 2026-05-06 02:11 | 42.26066 | 10.92381 | 33953 ft | 364 kts | 302° |
| 2026-05-06 02:12 | 42.29269 | 10.87096 | 33952 ft | 364 kts | 302° |
| 2026-05-06 02:12 | 42.32475 | 10.81799 | 33946 ft | 364 kts | 302° |
| 2026-05-06 02:13 | 42.35669 | 10.76508 | 33938 ft | 364 kts | 302° |
| 2026-05-06 02:13 | 42.38330 | 10.72103 | 33938 ft | 364 kts | 302° |
| 2026-05-06 02:14 | 42.41529 | 10.66797 | 33934 ft | 364 kts | 302° |
| 2026-05-06 02:14 | 42.44719 | 10.61486 | 33939 ft | 364 kts | 302° |
| 2026-05-06 02:15 | 42.47915 | 10.56162 | 33925 ft | 364 kts | 301° |
| 2026-05-06 02:15 | 42.51109 | 10.50818 | 33913 ft | 366 kts | 301° |
| 2026-05-06 02:16 | 42.54317 | 10.45447 | 33920 ft | 367 kts | 301° |
| 2026-05-06 02:16 | 42.57530 | 10.40065 | 33912 ft | 367 kts | 301° |
| 2026-05-06 02:17 | 42.60740 | 10.34683 | 33924 ft | 367 kts | 300° |
| 2026-05-06 02:17 | 42.63949 | 10.29292 | 33918 ft | 367 kts | 300° |
| 2026-05-06 02:18 | 42.67148 | 10.23908 | 33906 ft | 367 kts | 300° |
| 2026-05-06 02:18 | 42.70350 | 10.18502 | 33924 ft | 367 kts | 300° |
| 2026-05-06 02:19 | 42.73546 | 10.13109 | 33918 ft | 366 kts | 300° |
| 2026-05-06 02:19 | 42.76740 | 10.07709 | 33907 ft | 366 kts | 300° |
| 2026-05-06 02:20 | 42.81512 | 9.99596 | 33925 ft | 366 kts | 300° |
| 2026-05-06 02:21 | 42.84682 | 9.94184 | 33918 ft | 365 kts | 300° |
| 2026-05-06 02:21 | 42.87853 | 9.88774 | 33911 ft | 365 kts | 300° |
| 2026-05-06 02:22 | 42.90970 | 9.83334 | 33914 ft | 363 kts | 298° |
| 2026-05-06 02:22 | 42.93955 | 9.77774 | 33901 ft | 368 kts | 296° |
| 2026-05-06 02:23 | 42.96534 | 9.71671 | 33893 ft | 376 kts | 287° |
| 2026-05-06 02:23 | 42.98764 | 9.65093 | 33891 ft | 385 kts | 287° |
| 2026-05-06 02:24 | 43.01040 | 9.58459 | 33895 ft | 386 kts | 287° |
| 2026-05-06 02:24 | 43.03310 | 9.51814 | 33889 ft | 386 kts | 287° |
| 2026-05-06 02:25 | 43.05562 | 9.45154 | 33911 ft | 385 kts | 286° |
| 2026-05-06 02:25 | 43.07817 | 9.38506 | 33898 ft | 385 kts | 286° |
| 2026-05-06 02:26 | 43.10066 | 9.31865 | 33894 ft | 384 kts | 286° |
| 2026-05-06 02:26 | 43.12304 | 9.25223 | 33890 ft | 384 kts | 286° |
| 2026-05-06 02:27 | 43.14526 | 9.18573 | 33879 ft | 384 kts | 286° |
| 2026-05-06 02:27 | 43.16758 | 9.11924 | 33876 ft | 384 kts | 286° |
| 2026-05-06 02:28 | 43.18985 | 9.05272 | 33906 ft | 384 kts | 286° |
| 2026-05-06 02:28 | 43.21201 | 8.98620 | 33903 ft | 384 kts | 286° |
| 2026-05-06 02:29 | 43.23416 | 8.91968 | 33895 ft | 384 kts | 286° |
| 2026-05-06 02:29 | 43.25626 | 8.85307 | 33888 ft | 384 kts | 285° |
| 2026-05-06 02:30 | 43.27853 | 8.78603 | 33884 ft | 384 kts | 285° |
| 2026-05-06 02:30 | 43.30061 | 8.71932 | 33899 ft | 383 kts | 285° |
| 2026-05-06 02:31 | 43.32259 | 8.65253 | 33888 ft | 384 kts | 285° |
| 2026-05-06 02:31 | 43.33933 | 8.58446 | 33872 ft | 366 kts | 268° |
| 2026-05-06 02:32 | 43.33602 | 8.51627 | 33865 ft | 357 kts | 258° |
| 2026-05-06 02:32 | 43.33037 | 8.44830 | 33857 ft | 358 kts | 258° |
| 2026-05-06 02:33 | 43.32467 | 8.38036 | 33857 ft | 359 kts | 258° |
| 2026-05-06 02:33 | 43.32275 | 8.35781 | 33835 ft | 358 kts | 258° |
| 2026-05-06 02:34 | 43.31309 | 8.24433 | 33870 ft | 359 kts | 258° |
| 2026-05-06 02:34 | 43.30719 | 8.17628 | 33869 ft | 359 kts | 258° |
| 2026-05-06 02:35 | 43.30441 | 8.10765 | 33863 ft | 370 kts | 273° |
| 2026-05-06 02:35 | 43.31280 | 8.07365 | 33861 ft | 386 kts | 289° |
| 2026-05-06 02:35 | 43.32626 | 8.04094 | 33853 ft | 389 kts | 290° |
| 2026-05-06 02:36 | 43.35291 | 7.97675 | 33850 ft | 390 kts | 290° |
| 2026-05-06 02:36 | 43.37976 | 7.91181 | 33863 ft | 392 kts | 290° |
| 2026-05-06 02:37 | 43.40652 | 7.84637 | 33850 ft | 391 kts | 287° |
| 2026-05-06 02:37 | 43.41540 | 7.81197 | 33848 ft | 376 kts | 273° |
| 2026-05-06 02:37 | 43.41807 | 7.77679 | 33849 ft | 369 kts | 266° |
| 2026-05-06 02:38 | 43.42120 | 7.70579 | 33835 ft | 370 kts | 266° |
| 2026-05-06 02:38 | 43.42440 | 7.63509 | 33838 ft | 371 kts | 266° |
| 2026-05-06 02:39 | 43.42746 | 7.56436 | 33875 ft | 371 kts | 266° |
| 2026-05-06 02:39 | 43.43046 | 7.49336 | 33860 ft | 372 kts | 266° |
| 2026-05-06 02:40 | 43.43344 | 7.42228 | 33858 ft | 372 kts | 266° |
| 2026-05-06 02:40 | 43.43640 | 7.35118 | 33861 ft | 373 kts | 266° |
| 2026-05-06 02:41 | 43.43937 | 7.27997 | 33860 ft | 373 kts | 266° |
| 2026-05-06 02:41 | 43.44230 | 7.20882 | 33868 ft | 373 kts | 266° |
| 2026-05-06 02:42 | 43.44512 | 7.13758 | 33879 ft | 373 kts | 266° |
| 2026-05-06 02:42 | 43.44795 | 7.06663 | 33882 ft | 365 kts | 266° |
| 2026-05-06 02:42 | 43.44936 | 7.03256 | 33885 ft | 350 kts | 266° |
| 2026-05-06 02:43 | 43.45278 | 6.99978 | 33884 ft | 350 kts | 282° |
| 2026-05-06 02:43 | 43.46593 | 6.97076 | 33893 ft | 373 kts | 307° |
| 2026-05-06 02:43 | 43.48824 | 6.95071 | 33893 ft | 400 kts | 331° |
| 2026-05-06 02:43 | 43.51642 | 6.94389 | 33893 ft | 426 kts | 356° |
| 2026-05-06 02:44 | 43.54589 | 6.95249 | 33893 ft | 443 kts | 20° |
| 2026-05-06 02:44 | 43.57178 | 6.97579 | 33894 ft | 450 kts | 45° |
| 2026-05-06 02:44 | 43.59027 | 7.01040 | 33899 ft | 449 kts | 65° |
| 2026-05-06 02:45 | 43.61935 | 7.08709 | 33916 ft | 452 kts | 65° |
| 2026-05-06 02:45 | 43.64840 | 7.16390 | 33892 ft | 451 kts | 65° |
| 2026-05-06 02:46 | 43.67376 | 7.24234 | 33885 ft | 439 kts | 88° |
| 2026-05-06 02:46 | 43.67375 | 7.28327 | 33894 ft | 418 kts | 112° |
| 2026-05-06 02:46 | 43.66318 | 7.31892 | 33895 ft | 390 kts | 137° |
| 2026-05-06 02:46 | 43.64508 | 7.34528 | 33900 ft | 374 kts | 148° |
| 2026-05-06 02:47 | 43.62568 | 7.36929 | 33889 ft | 376 kts | 148° |
| 2026-05-06 02:47 | 43.58671 | 7.41744 | 33815 ft | 377 kts | 148° |
| 2026-05-06 02:47 | 43.56929 | 7.44552 | 33855 ft | 398 kts | 130° |
| 2026-05-06 02:48 | 43.55556 | 7.47905 | 33854 ft | 402 kts | 129° |
| 2026-05-06 02:48 | 43.52845 | 7.54665 | 33855 ft | 403 kts | 129° |
| 2026-05-06 02:49 | 43.50129 | 7.61422 | 33842 ft | 403 kts | 129° |
| 2026-05-06 02:49 | 43.47388 | 7.68169 | 33855 ft | 404 kts | 129° |
| 2026-05-06 02:50 | 43.44643 | 7.74906 | 33856 ft | 404 kts | 129° |
| 2026-05-06 02:50 | 43.41971 | 7.81729 | 33856 ft | 413 kts | 120° |
| 2026-05-06 02:51 | 43.40955 | 7.88333 | 33860 ft | 433 kts | 100° |
| 2026-05-06 02:51 | 43.40955 | 7.96668 | 33853 ft | 427 kts | 109° |
| 2026-05-06 02:51 | 43.40016 | 8.00377 | 33866 ft | 400 kts | 134° |
| 2026-05-06 02:52 | 43.38235 | 8.03081 | 33860 ft | 369 kts | 158° |
| 2026-05-06 02:52 | 43.35987 | 8.04377 | 33860 ft | 338 kts | 183° |
| 2026-05-06 02:52 | 43.33757 | 8.04124 | 33839 ft | 314 kts | 208° |
| 2026-05-06 02:52 | 43.32016 | 8.02476 | 33857 ft | 304 kts | 233° |
| 2026-05-06 02:53 | 43.31143 | 7.99848 | 33861 ft | 311 kts | 258° |
| 2026-05-06 02:53 | 43.31359 | 7.96830 | 33893 ft | 333 kts | 283° |
| 2026-05-06 02:53 | 43.32679 | 7.94069 | 33863 ft | 364 kts | 306° |
| 2026-05-06 02:54 | 43.36565 | 7.89387 | 33865 ft | 374 kts | 308° |
| 2026-05-06 02:54 | 43.40453 | 7.84622 | 33856 ft | 368 kts | 300° |
| 2026-05-06 02:54 | 43.41865 | 7.81810 | 33855 ft | 354 kts | 290° |
| 2026-05-06 02:55 | 43.43418 | 7.79108 | 33848 ft | 375 kts | 311° |
| 2026-05-06 02:55 | 43.45794 | 7.77362 | 33854 ft | 404 kts | 336° |
| 2026-05-06 02:55 | 43.48671 | 7.77003 | 33861 ft | 429 kts | 1° |
| 2026-05-06 02:55 | 43.51572 | 7.78190 | 33858 ft | 446 kts | 25° |
| 2026-05-06 02:56 | 43.54041 | 7.80808 | 33867 ft | 452 kts | 50° |
| 2026-05-06 02:56 | 43.55677 | 7.84470 | 33860 ft | 448 kts | 75° |
| 2026-05-06 02:56 | 43.56241 | 7.88599 | 33884 ft | 432 kts | 100° |
| 2026-05-06 02:56 | 43.55692 | 7.92515 | 33861 ft | 405 kts | 124° |
| 2026-05-06 02:57 | 43.54340 | 7.95834 | 33862 ft | 393 kts | 136° |
| 2026-05-06 02:57 | 43.50928 | 8.01663 | 33865 ft | 391 kts | 141° |
| 2026-05-06 02:57 | 43.49056 | 8.04285 | 33863 ft | 376 kts | 154° |
| 2026-05-06 02:58 | 43.46903 | 8.06189 | 33864 ft | 360 kts | 166° |
| 2026-05-06 02:58 | 43.44595 | 8.07211 | 33863 ft | 340 kts | 183° |
| 2026-05-06 02:58 | 43.42304 | 8.07166 | 33864 ft | 323 kts | 199° |
| 2026-05-06 02:58 | 43.40240 | 8.06134 | 33866 ft | 311 kts | 215° |
| 2026-05-06 02:59 | 43.38562 | 8.04315 | 33859 ft | 307 kts | 229° |
| 2026-05-06 02:59 | 43.37335 | 8.01927 | 33861 ft | 308 kts | 242° |
| 2026-05-06 02:59 | 43.36637 | 7.99118 | 33860 ft | 314 kts | 256° |
| 2026-05-06 02:59 | 43.36562 | 7.96078 | 33886 ft | 326 kts | 270° |
| 2026-05-06 03:00 | 43.37196 | 7.93008 | 33853 ft | 343 kts | 285° |
| 2026-05-06 03:00 | 43.39444 | 7.87117 | 33856 ft | 352 kts | 290° |
| 2026-05-06 03:01 | 43.42031 | 7.81317 | 33858 ft | 361 kts | 299° |
| 2026-05-06 03:01 | 43.43951 | 7.78954 | 33849 ft | 385 kts | 320° |
| 2026-05-06 03:01 | 43.46488 | 7.77615 | 33857 ft | 411 kts | 343° |
| 2026-05-06 03:01 | 43.49405 | 7.77671 | 33860 ft | 433 kts | 7° |
| 2026-05-06 03:02 | 43.52230 | 7.79271 | 33859 ft | 447 kts | 32° |
| 2026-05-06 03:02 | 43.54490 | 7.82214 | 33855 ft | 451 kts | 57° |
| 2026-05-06 03:02 | 43.55834 | 7.86058 | 33862 ft | 443 kts | 82° |
| 2026-05-06 03:02 | 43.56072 | 7.90239 | 33873 ft | 423 kts | 108° |
| 2026-05-06 03:03 | 43.55233 | 7.93902 | 33828 ft | 396 kts | 131° |
| 2026-05-06 03:03 | 43.51926 | 7.99778 | 33867 ft | 388 kts | 142° |
| 2026-05-06 03:04 | 43.48145 | 8.04840 | 33869 ft | 366 kts | 160° |
| 2026-05-06 03:04 | 43.45909 | 8.06324 | 33865 ft | 350 kts | 173° |
| 2026-05-06 03:04 | 43.43583 | 8.06942 | 33864 ft | 332 kts | 189° |
| 2026-05-06 03:04 | 43.41362 | 8.06525 | 33866 ft | 316 kts | 206° |
| 2026-05-06 03:05 | 43.39447 | 8.05164 | 33867 ft | 308 kts | 221° |
| 2026-05-06 03:05 | 43.37947 | 8.03086 | 33859 ft | 307 kts | 234° |
| 2026-05-06 03:05 | 43.36950 | 8.00489 | 33860 ft | 310 kts | 248° |
| 2026-05-06 03:05 | 43.36545 | 7.97547 | 33860 ft | 319 kts | 263° |
| 2026-05-06 03:06 | 43.36824 | 7.94469 | 33864 ft | 335 kts | 279° |
| 2026-05-06 03:06 | 43.37762 | 7.91461 | 33865 ft | 347 kts | 287° |
| 2026-05-06 03:06 | 43.38896 | 7.88518 | 33860 ft | 350 kts | 289° |
| 2026-05-06 03:07 | 43.41361 | 7.82704 | 33857 ft | 353 kts | 291° |
| 2026-05-06 03:07 | 43.42922 | 7.80013 | 33854 ft | 372 kts | 309° |
| 2026-05-06 03:07 | 43.45207 | 7.78119 | 33855 ft | 398 kts | 331° |
| 2026-05-06 03:07 | 43.48007 | 7.77460 | 33856 ft | 423 kts | 355° |
| 2026-05-06 03:08 | 43.50936 | 7.78328 | 33858 ft | 442 kts | 20° |
| 2026-05-06 03:08 | 43.53551 | 7.80711 | 33859 ft | 451 kts | 46° |
| 2026-05-06 03:08 | 43.55342 | 7.84157 | 33859 ft | 448 kts | 70° |
| 2026-05-06 03:08 | 43.56123 | 7.88235 | 33896 ft | 435 kts | 95° |
| 2026-05-06 03:09 | 43.55787 | 7.92234 | 33859 ft | 409 kts | 120° |
| 2026-05-06 03:09 | 43.54492 | 7.95578 | 33864 ft | 389 kts | 138° |
| 2026-05-06 03:09 | 43.52778 | 7.98434 | 33845 ft | 387 kts | 142° |
| 2026-05-06 03:10 | 43.49149 | 8.03860 | 33848 ft | 373 kts | 155° |
| 2026-05-06 03:10 | 43.46986 | 8.05678 | 33867 ft | 357 kts | 167° |
| 2026-05-06 03:10 | 43.44686 | 8.06725 | 33864 ft | 341 kts | 181° |
| 2026-05-06 03:10 | 43.42387 | 8.06812 | 33864 ft | 323 kts | 198° |
| 2026-05-06 03:11 | 43.40302 | 8.05884 | 33866 ft | 312 kts | 214° |
| 2026-05-06 03:11 | 43.38570 | 8.04096 | 33860 ft | 307 kts | 228° |
| 2026-05-06 03:11 | 43.37348 | 8.01746 | 33861 ft | 308 kts | 242° |
| 2026-05-06 03:11 | 43.36662 | 7.98895 | 33859 ft | 315 kts | 256° |
| 2026-05-06 03:12 | 43.36621 | 7.95893 | 33873 ft | 327 kts | 271° |
| 2026-05-06 03:12 | 43.37315 | 7.92794 | 33861 ft | 346 kts | 288° |
| 2026-05-06 03:12 | 43.38477 | 7.89919 | 33859 ft | 350 kts | 289° |
| 2026-05-06 03:13 | 43.40902 | 7.84043 | 33857 ft | 351 kts | 289° |
| 2026-05-06 03:13 | 43.44123 | 7.78826 | 33850 ft | 385 kts | 321° |
| 2026-05-06 03:13 | 43.46681 | 7.77565 | 33861 ft | 411 kts | 345° |
| 2026-05-06 03:14 | 43.49600 | 7.77745 | 33854 ft | 433 kts | 9° |
| 2026-05-06 03:14 | 43.52421 | 7.79497 | 33860 ft | 447 kts | 35° |
| 2026-05-06 03:14 | 43.54600 | 7.82548 | 33855 ft | 450 kts | 60° |
| 2026-05-06 03:14 | 43.55827 | 7.86390 | 33860 ft | 441 kts | 84° |
| 2026-05-06 03:15 | 43.55963 | 7.90557 | 33872 ft | 420 kts | 110° |
| 2026-05-06 03:15 | 43.55037 | 7.94153 | 33837 ft | 394 kts | 133° |
| 2026-05-06 03:15 | 43.53415 | 7.97176 | 33835 ft | 385 kts | 142° |
| 2026-05-06 03:16 | 43.49893 | 8.02758 | 33863 ft | 382 kts | 147° |
| 2026-05-06 03:16 | 43.47844 | 8.04906 | 33869 ft | 362 kts | 162° |
| 2026-05-06 03:16 | 43.45597 | 8.06279 | 33865 ft | 346 kts | 175° |
| 2026-05-06 03:16 | 43.43289 | 8.06774 | 33863 ft | 328 kts | 191° |
| 2026-05-06 03:17 | 43.41103 | 8.06251 | 33868 ft | 314 kts | 207° |
| 2026-05-06 03:17 | 43.39225 | 8.04829 | 33864 ft | 307 kts | 222° |
| 2026-05-06 03:17 | 43.37784 | 8.02697 | 33860 ft | 305 kts | 236° |
| 2026-05-06 03:17 | 43.36872 | 8.00057 | 33860 ft | 310 kts | 250° |
| 2026-05-06 03:18 | 43.36559 | 7.97131 | 33856 ft | 319 kts | 264° |
| 2026-05-06 03:18 | 43.36928 | 7.94061 | 33862 ft | 336 kts | 281° |
| 2026-05-06 03:18 | 43.37917 | 7.91051 | 33858 ft | 345 kts | 287° |
| 2026-05-06 03:19 | 43.40276 | 7.85227 | 33855 ft | 350 kts | 290° |
| 2026-05-06 03:19 | 43.43160 | 7.79744 | 33851 ft | 373 kts | 312° |
| 2026-05-06 03:19 | 43.45505 | 7.77983 | 33857 ft | 400 kts | 334° |
| 2026-05-06 03:20 | 43.51242 | 7.78608 | 33865 ft | 443 kts | 24° |
| 2026-05-06 03:20 | 43.53735 | 7.81138 | 33858 ft | 450 kts | 49° |
| 2026-05-06 03:20 | 43.55413 | 7.84744 | 33864 ft | 446 kts | 74° |
| 2026-05-06 03:21 | 43.56024 | 7.88845 | 33900 ft | 431 kts | 99° |
| 2026-05-06 03:21 | 43.55525 | 7.92763 | 33822 ft | 404 kts | 124° |
| 2026-05-06 03:21 | 43.54121 | 7.95992 | 33862 ft | 387 kts | 140° |
| 2026-05-06 03:21 | 43.52388 | 7.98799 | 33852 ft | 385 kts | 142° |
| 2026-05-06 03:22 | 43.48720 | 8.04070 | 33865 ft | 368 kts | 157° |
| 2026-05-06 03:22 | 43.46534 | 8.05748 | 33864 ft | 353 kts | 169° |
| 2026-05-06 03:22 | 43.44234 | 8.06641 | 33863 ft | 336 kts | 184° |
| 2026-05-06 03:23 | 43.41965 | 8.06558 | 33865 ft | 319 kts | 200° |
| 2026-05-06 03:23 | 43.39942 | 8.05489 | 33866 ft | 309 kts | 216° |
| 2026-05-06 03:23 | 43.38316 | 8.03618 | 33859 ft | 305 kts | 231° |
| 2026-05-06 03:23 | 43.37180 | 8.01159 | 33861 ft | 307 kts | 245° |
| 2026-05-06 03:24 | 43.36615 | 7.98303 | 33860 ft | 315 kts | 259° |
| 2026-05-06 03:24 | 43.36704 | 7.95247 | 33869 ft | 329 kts | 274° |
| 2026-05-06 03:24 | 43.37526 | 7.92243 | 33861 ft | 346 kts | 289° |
| 2026-05-06 03:24 | 43.38714 | 7.89346 | 33858 ft | 349 kts | 289° |
| 2026-05-06 03:25 | 43.41110 | 7.83535 | 33858 ft | 349 kts | 289° |
| 2026-05-06 03:25 | 43.42459 | 7.80724 | 33853 ft | 362 kts | 303° |
| 2026-05-06 03:25 | 43.44513 | 7.78543 | 33853 ft | 389 kts | 324° |
| 2026-05-06 03:26 | 43.47194 | 7.77525 | 33856 ft | 416 kts | 349° |
| 2026-05-06 03:26 | 43.50128 | 7.78012 | 33861 ft | 437 kts | 14° |
| 2026-05-06 03:26 | 43.52835 | 7.80018 | 33864 ft | 449 kts | 39° |
| 2026-05-06 03:26 | 43.54869 | 7.83271 | 33857 ft | 449 kts | 64° |
| 2026-05-06 03:27 | 43.55910 | 7.87253 | 33864 ft | 439 kts | 89° |
| 2026-05-06 03:27 | 43.55836 | 7.91339 | 33866 ft | 416 kts | 114° |
| 2026-05-06 03:27 | 43.54719 | 7.94847 | 33852 ft | 390 kts | 136° |
| 2026-05-06 03:27 | 43.53605 | 7.96814 | 33866 ft | 384 kts | 142° |
| 2026-05-06 03:28 | 43.50063 | 8.02357 | 33846 ft | 383 kts | 146° |
| 2026-05-06 03:28 | 43.48038 | 8.04552 | 33872 ft | 362 kts | 162° |
| 2026-05-06 03:28 | 43.45798 | 8.05968 | 33864 ft | 348 kts | 173° |
| 2026-05-06 03:29 | 43.43494 | 8.06581 | 33862 ft | 330 kts | 188° |
| 2026-05-06 03:29 | 43.41284 | 8.06196 | 33867 ft | 314 kts | 205° |
| 2026-05-06 03:29 | 43.39381 | 8.04869 | 33865 ft | 305 kts | 221° |
| 2026-05-06 03:29 | 43.37901 | 8.02810 | 33859 ft | 303 kts | 235° |
| 2026-05-06 03:30 | 43.36939 | 8.00226 | 33863 ft | 307 kts | 249° |
| 2026-05-06 03:30 | 43.36572 | 7.97302 | 33863 ft | 316 kts | 263° |
| 2026-05-06 03:30 | 43.36883 | 7.94248 | 33866 ft | 332 kts | 279° |
| 2026-05-06 03:30 | 43.37826 | 7.91278 | 33865 ft | 343 kts | 287° |
| 2026-05-06 03:31 | 43.40157 | 7.85494 | 33864 ft | 348 kts | 290° |
| 2026-05-06 03:31 | 43.42964 | 7.79990 | 33859 ft | 369 kts | 310° |
| 2026-05-06 03:32 | 43.45243 | 7.78151 | 33861 ft | 396 kts | 332° |
| 2026-05-06 03:32 | 43.48043 | 7.77562 | 33863 ft | 421 kts | 357° |
| 2026-05-06 03:32 | 43.50944 | 7.78513 | 33863 ft | 440 kts | 22° |
| 2026-05-06 03:32 | 43.53481 | 7.80933 | 33865 ft | 449 kts | 47° |
| 2026-05-06 03:33 | 43.55229 | 7.84462 | 33863 ft | 446 kts | 72° |
| 2026-05-06 03:33 | 43.55923 | 7.88532 | 33903 ft | 432 kts | 97° |
| 2026-05-06 03:33 | 43.55506 | 7.92490 | 33823 ft | 406 kts | 122° |
| 2026-05-06 03:33 | 43.54144 | 7.95745 | 33874 ft | 386 kts | 140° |
| 2026-05-06 03:34 | 43.50651 | 8.01310 | 33867 ft | 385 kts | 142° |
| 2026-05-06 03:34 | 43.48762 | 8.03816 | 33860 ft | 367 kts | 157° |
| 2026-05-06 03:34 | 43.46590 | 8.05498 | 33866 ft | 352 kts | 169° |
| 2026-05-06 03:35 | 43.44300 | 8.06414 | 33863 ft | 335 kts | 183° |
| 2026-05-06 03:35 | 43.42037 | 8.06388 | 33864 ft | 319 kts | 199° |
| 2026-05-06 03:35 | 43.40002 | 8.05379 | 33866 ft | 308 kts | 215° |
| 2026-05-06 03:35 | 43.38358 | 8.03552 | 33863 ft | 304 kts | 230° |
| 2026-05-06 03:36 | 43.37203 | 8.01124 | 33859 ft | 306 kts | 244° |
| 2026-05-06 03:36 | 43.36624 | 7.98300 | 33861 ft | 313 kts | 258° |
| 2026-05-06 03:36 | 43.36702 | 7.95257 | 33872 ft | 327 kts | 274° |
| 2026-05-06 03:36 | 43.37487 | 7.92251 | 33864 ft | 341 kts | 285° |
| 2026-05-06 03:37 | 43.39750 | 7.86442 | 33866 ft | 348 kts | 290° |
| 2026-05-06 03:37 | 43.42355 | 7.80792 | 33857 ft | 361 kts | 303° |
| 2026-05-06 03:38 | 43.44421 | 7.78643 | 33865 ft | 387 kts | 324° |
| 2026-05-06 03:38 | 43.47085 | 7.77606 | 33865 ft | 414 kts | 349° |
| 2026-05-06 03:38 | 43.50005 | 7.78056 | 33863 ft | 435 kts | 14° |
| 2026-05-06 03:38 | 43.52714 | 7.80031 | 33868 ft | 448 kts | 39° |
| 2026-05-06 03:39 | 43.54753 | 7.83250 | 33868 ft | 448 kts | 64° |
| 2026-05-06 03:39 | 43.55809 | 7.87227 | 33867 ft | 438 kts | 89° |
| 2026-05-06 03:39 | 43.55748 | 7.91302 | 33875 ft | 416 kts | 114° |
| 2026-05-06 03:39 | 43.54643 | 7.94816 | 33861 ft | 390 kts | 136° |
| 2026-05-06 03:40 | 43.51205 | 8.00459 | 33867 ft | 385 kts | 142° |
| 2026-05-06 03:40 | 43.49396 | 8.03140 | 33853 ft | 374 kts | 152° |
| 2026-05-06 03:40 | 43.47286 | 8.05052 | 33869 ft | 356 kts | 165° |
| 2026-05-06 03:41 | 43.45021 | 8.06225 | 33868 ft | 341 kts | 178° |
| 2026-05-06 03:41 | 43.42731 | 8.06517 | 33864 ft | 323 kts | 194° |
| 2026-05-06 03:41 | 43.40603 | 8.05804 | 33865 ft | 310 kts | 210° |
| 2026-05-06 03:41 | 43.38824 | 8.04206 | 33862 ft | 304 kts | 226° |
| 2026-05-06 03:42 | 43.37512 | 8.01942 | 33863 ft | 305 kts | 240° |
| 2026-05-06 03:42 | 43.36741 | 7.99218 | 33863 ft | 310 kts | 253° |
| 2026-05-06 03:42 | 43.36599 | 7.96222 | 33891 ft | 322 kts | 269° |
| 2026-05-06 03:42 | 43.37180 | 7.93191 | 33859 ft | 340 kts | 287° |
| 2026-05-06 03:43 | 43.39543 | 7.87431 | 33864 ft | 347 kts | 289° |
| 2026-05-06 03:43 | 43.41952 | 7.81673 | 33863 ft | 352 kts | 295° |
| 2026-05-06 03:44 | 43.43725 | 7.79213 | 33864 ft | 377 kts | 316° |
| 2026-05-06 03:44 | 43.46207 | 7.77748 | 33867 ft | 405 kts | 341° |
| 2026-05-06 03:44 | 43.49103 | 7.77715 | 33871 ft | 429 kts | 6° |
| 2026-05-06 03:44 | 43.51919 | 7.79225 | 33870 ft | 444 kts | 31° |
| 2026-05-06 03:45 | 43.54206 | 7.82106 | 33865 ft | 448 kts | 56° |
| 2026-05-06 03:45 | 43.55583 | 7.85903 | 33869 ft | 441 kts | 81° |
| 2026-05-06 03:45 | 43.55860 | 7.90010 | 33900 ft | 423 kts | 106° |
| 2026-05-06 03:45 | 43.55046 | 7.93742 | 33842 ft | 394 kts | 131° |
| 2026-05-06 03:46 | 43.53464 | 7.96718 | 33872 ft | 381 kts | 143° |
| 2026-05-06 03:46 | 43.51707 | 7.99461 | 33866 ft | 382 kts | 143° |
| 2026-05-06 03:46 | 43.47934 | 8.04381 | 33869 ft | 359 kts | 162° |
| 2026-05-06 03:47 | 43.45714 | 8.05780 | 33869 ft | 344 kts | 174° |
| 2026-05-06 03:47 | 43.43428 | 8.06379 | 33863 ft | 327 kts | 188° |
| 2026-05-06 03:47 | 43.41230 | 8.05995 | 33865 ft | 312 kts | 205° |
| 2026-05-06 03:47 | 43.39333 | 8.04672 | 33867 ft | 304 kts | 221° |
| 2026-05-06 03:48 | 43.37870 | 8.02612 | 33862 ft | 302 kts | 235° |
| 2026-05-06 03:48 | 43.36926 | 8.00028 | 33863 ft | 306 kts | 249° |
| 2026-05-06 03:48 | 43.36587 | 7.97106 | 33864 ft | 316 kts | 264° |
| 2026-05-06 03:48 | 43.36930 | 7.94072 | 33864 ft | 331 kts | 280° |
| 2026-05-06 03:49 | 43.39013 | 7.88232 | 33866 ft | 345 kts | 289° |
| 2026-05-06 03:49 | 43.41443 | 7.82531 | 33866 ft | 347 kts | 291° |
| 2026-05-06 03:50 | 43.43029 | 7.79927 | 33861 ft | 368 kts | 311° |
| 2026-05-06 03:50 | 43.45334 | 7.78145 | 33866 ft | 395 kts | 333° |
| 2026-05-06 03:50 | 43.48139 | 7.77649 | 33867 ft | 422 kts | 358° |
| 2026-05-06 03:50 | 43.51023 | 7.78694 | 33867 ft | 440 kts | 23° |
| 2026-05-06 03:51 | 43.53516 | 7.81196 | 33868 ft | 448 kts | 49° |
| 2026-05-06 03:51 | 43.55197 | 7.84773 | 33870 ft | 445 kts | 73° |
| 2026-05-06 03:51 | 43.55814 | 7.88855 | 33871 ft | 430 kts | 99° |
| 2026-05-06 03:51 | 43.55315 | 7.92775 | 33861 ft | 405 kts | 124° |
| 2026-05-06 03:52 | 43.53903 | 7.95974 | 33871 ft | 383 kts | 141° |
| 2026-05-06 03:52 | 43.52155 | 7.98736 | 33853 ft | 382 kts | 143° |
| 2026-05-06 03:52 | 43.48480 | 8.03887 | 33865 ft | 362 kts | 159° |
| 2026-05-06 03:53 | 43.46267 | 8.05475 | 33863 ft | 348 kts | 171° |
| 2026-05-06 03:53 | 43.44016 | 8.06285 | 33865 ft | 332 kts | 184° |
| 2026-05-06 03:53 | 43.41749 | 8.06160 | 33865 ft | 315 kts | 201° |
| 2026-05-06 03:53 | 43.39788 | 8.05071 | 33866 ft | 305 kts | 217° |
| 2026-05-06 03:54 | 43.38202 | 8.03185 | 33864 ft | 302 kts | 231° |
| 2026-05-06 03:54 | 43.37099 | 8.00690 | 33863 ft | 305 kts | 246° |
| 2026-05-06 03:54 | 43.36604 | 7.97878 | 33861 ft | 313 kts | 260° |
| 2026-05-06 03:54 | 43.36767 | 7.94848 | 33870 ft | 327 kts | 276° |
| 2026-05-06 03:55 | 43.37633 | 7.91839 | 33866 ft | 340 kts | 286° |
| 2026-05-06 03:55 | 43.38718 | 7.88982 | 33865 ft | 344 kts | 289° |
| 2026-05-06 03:55 | 43.41129 | 7.83272 | 33865 ft | 346 kts | 290° |
| 2026-05-06 03:56 | 43.42568 | 7.80509 | 33858 ft | 362 kts | 305° |
| 2026-05-06 03:56 | 43.44695 | 7.78477 | 33865 ft | 388 kts | 327° |
| 2026-05-06 03:56 | 43.47403 | 7.77621 | 33867 ft | 415 kts | 352° |
| 2026-05-06 03:56 | 43.50276 | 7.78262 | 33869 ft | 436 kts | 17° |
| 2026-05-06 03:57 | 43.52900 | 7.80388 | 33869 ft | 447 kts | 41° |
| 2026-05-06 03:57 | 43.54833 | 7.83727 | 33866 ft | 447 kts | 67° |
| 2026-05-06 03:57 | 43.55753 | 7.87744 | 33868 ft | 435 kts | 92° |
| 2026-05-06 03:57 | 43.55539 | 7.91822 | 33867 ft | 412 kts | 117° |
| 2026-05-06 03:58 | 43.54313 | 7.95231 | 33870 ft | 387 kts | 139° |
| 2026-05-06 03:58 | 43.52619 | 7.97997 | 33835 ft | 382 kts | 143° |
| 2026-05-06 03:58 | 43.49018 | 8.03324 | 33851 ft | 368 kts | 155° |
| 2026-05-06 03:59 | 43.46845 | 8.05086 | 33868 ft | 351 kts | 168° |
| 2026-05-06 03:59 | 43.44606 | 8.06095 | 33863 ft | 336 kts | 180° |
| 2026-05-06 03:59 | 43.42338 | 8.06245 | 33865 ft | 320 kts | 196° |
| 2026-05-06 03:59 | 43.40263 | 8.05399 | 33867 ft | 307 kts | 213° |
| 2026-05-06 04:00 | 43.38541 | 8.03665 | 33866 ft | 302 kts | 228° |
| 2026-05-06 04:00 | 43.37342 | 8.01360 | 33869 ft | 302 kts | 242° |
| 2026-05-06 04:00 | 43.36676 | 7.98564 | 33867 ft | 308 kts | 256° |
| 2026-05-06 04:00 | 43.36662 | 7.95576 | 33888 ft | 321 kts | 272° |
| 2026-05-06 04:01 | 43.37386 | 7.92599 | 33866 ft | 339 kts | 288° |
| 2026-05-06 04:01 | 43.38559 | 7.89757 | 33865 ft | 343 kts | 289° |
| 2026-05-06 04:01 | 43.40916 | 7.84052 | 33869 ft | 343 kts | 289° |
| 2026-05-06 04:02 | 43.44065 | 7.78949 | 33867 ft | 378 kts | 321° |
| 2026-05-06 04:02 | 43.46637 | 7.77751 | 33868 ft | 407 kts | 346° |
| 2026-05-06 04:02 | 43.49533 | 7.78033 | 33867 ft | 431 kts | 11° |
| 2026-05-06 04:03 | 43.52264 | 7.79850 | 33872 ft | 444 kts | 36° |
| 2026-05-06 04:03 | 43.54370 | 7.82953 | 33872 ft | 446 kts | 62° |
| 2026-05-06 04:03 | 43.55517 | 7.86865 | 33873 ft | 437 kts | 87° |
| 2026-05-06 04:03 | 43.55551 | 7.90891 | 33869 ft | 417 kts | 112° |
| 2026-05-06 04:04 | 43.54511 | 7.94501 | 33871 ft | 389 kts | 136° |
| 2026-05-06 04:04 | 43.52834 | 7.97336 | 33838 ft | 380 kts | 143° |
| 2026-05-06 04:04 | 43.49894 | 8.01838 | 33866 ft | 379 kts | 145° |
| 2026-05-06 04:05 | 43.47912 | 8.04030 | 33872 ft | 356 kts | 162° |
| 2026-05-06 04:05 | 43.45696 | 8.05401 | 33866 ft | 343 kts | 173° |
| 2026-05-06 04:05 | 43.43421 | 8.06034 | 33862 ft | 327 kts | 187° |
| 2026-05-06 04:05 | 43.41224 | 8.05721 | 33865 ft | 311 kts | 204° |
| 2026-05-06 04:06 | 43.39320 | 8.04442 | 33869 ft | 302 kts | 220° |
| 2026-05-06 04:06 | 43.37865 | 8.02409 | 33866 ft | 300 kts | 235° |
| 2026-05-06 04:06 | 43.36924 | 7.99797 | 33865 ft | 305 kts | 250° |
| 2026-05-06 04:06 | 43.36604 | 7.96926 | 33900 ft | 314 kts | 264° |
| 2026-05-06 04:07 | 43.36973 | 7.93906 | 33868 ft | 330 kts | 281° |
| 2026-05-06 04:07 | 43.38040 | 7.91030 | 33869 ft | 342 kts | 289° |
| 2026-05-06 04:07 | 43.40398 | 7.85334 | 33868 ft | 343 kts | 289° |
| 2026-05-06 04:08 | 43.43127 | 7.79873 | 33864 ft | 366 kts | 310° |
| 2026-05-06 04:08 | 43.45453 | 7.78098 | 33868 ft | 395 kts | 334° |
| 2026-05-06 04:08 | 43.48226 | 7.77693 | 33870 ft | 421 kts | 359° |
| 2026-05-06 04:09 | 43.51092 | 7.78820 | 33870 ft | 439 kts | 25° |
| 2026-05-06 04:09 | 43.53566 | 7.81427 | 33873 ft | 447 kts | 50° |
| 2026-05-06 04:09 | 43.55171 | 7.85053 | 33873 ft | 443 kts | 76° |
| 2026-05-06 04:09 | 43.55701 | 7.89138 | 33870 ft | 427 kts | 101° |
| 2026-05-06 04:10 | 43.55133 | 7.92958 | 33869 ft | 402 kts | 126° |
| 2026-05-06 04:10 | 43.53666 | 7.96078 | 33875 ft | 380 kts | 143° |
| 2026-05-06 04:10 | 43.50116 | 8.01529 | 33868 ft | 380 kts | 144° |
| 2026-05-06 04:11 | 43.48166 | 8.03828 | 33870 ft | 358 kts | 161° |
| 2026-05-06 04:11 | 43.45967 | 8.05287 | 33866 ft | 344 kts | 172° |
| 2026-05-06 04:11 | 43.43691 | 8.06016 | 33862 ft | 329 kts | 186° |
| 2026-05-06 04:11 | 43.41476 | 8.05811 | 33864 ft | 313 kts | 202° |
| 2026-05-06 04:12 | 43.39528 | 8.04649 | 33867 ft | 303 kts | 218° |
| 2026-05-06 04:12 | 43.38004 | 8.02699 | 33865 ft | 300 kts | 233° |
| 2026-05-06 04:12 | 43.37002 | 8.00178 | 33866 ft | 304 kts | 248° |
| 2026-05-06 04:12 | 43.36602 | 7.97304 | 33865 ft | 313 kts | 263° |
| 2026-05-06 04:13 | 43.36888 | 7.94280 | 33872 ft | 328 kts | 279° |
| 2026-05-06 04:13 | 43.37889 | 7.91382 | 33871 ft | 342 kts | 289° |
| 2026-05-06 04:13 | 43.40244 | 7.85686 | 33868 ft | 343 kts | 289° |
| 2026-05-06 04:14 | 43.42891 | 7.80162 | 33860 ft | 363 kts | 308° |
| 2026-05-06 04:14 | 43.45074 | 7.78298 | 33865 ft | 391 kts | 331° |
| 2026-05-06 04:14 | 43.47876 | 7.77694 | 33870 ft | 418 kts | 356° |
| 2026-05-06 04:15 | 43.50756 | 7.78645 | 33871 ft | 438 kts | 22° |
| 2026-05-06 04:15 | 43.53272 | 7.81064 | 33870 ft | 447 kts | 47° |
| 2026-05-06 04:15 | 43.54995 | 7.84582 | 33869 ft | 444 kts | 72° |
| 2026-05-06 04:15 | 43.55667 | 7.88649 | 33873 ft | 429 kts | 98° |
| 2026-05-06 04:16 | 43.55215 | 7.92580 | 33867 ft | 405 kts | 123° |
| 2026-05-06 04:16 | 43.53828 | 7.95778 | 33877 ft | 380 kts | 142° |
| 2026-05-06 04:16 | 43.50320 | 8.01193 | 33869 ft | 379 kts | 143° |
| 2026-05-06 04:17 | 43.48422 | 8.03586 | 33858 ft | 359 kts | 159° |
| 2026-05-06 04:17 | 43.46256 | 8.05133 | 33866 ft | 345 kts | 171° |
| 2026-05-06 04:17 | 43.43994 | 8.05970 | 33854 ft | 329 kts | 184° |
| 2026-05-06 04:17 | 43.41778 | 8.05896 | 33865 ft | 313 kts | 200° |
| 2026-05-06 04:18 | 43.39789 | 8.04854 | 33867 ft | 302 kts | 216° |
| 2026-05-06 04:18 | 43.38204 | 8.03011 | 33867 ft | 299 kts | 231° |
| 2026-05-06 04:18 | 43.37126 | 8.00582 | 33865 ft | 301 kts | 246° |
| 2026-05-06 04:18 | 43.36632 | 7.97754 | 33864 ft | 309 kts | 260° |
| 2026-05-06 04:19 | 43.36801 | 7.94762 | 33876 ft | 322 kts | 276° |
| 2026-05-06 04:19 | 43.37667 | 7.91909 | 33865 ft | 327 kts | 289° |
| 2026-05-06 04:19 | 43.39868 | 7.86546 | 33867 ft | 318 kts | 288° |
| 2026-05-06 04:20 | 43.42081 | 7.81338 | 33860 ft | 321 kts | 299° |
| 2026-05-06 04:20 | 43.43847 | 7.79320 | 33862 ft | 345 kts | 323° |
| 2026-05-06 04:20 | 43.46225 | 7.78425 | 33854 ft | 369 kts | 349° |
| 2026-05-06 04:21 | 43.48832 | 7.78923 | 33649 ft | 391 kts | 15° |
| 2026-05-06 04:21 | 43.51225 | 7.80819 | 33278 ft | 407 kts | 42° |
| 2026-05-06 04:21 | 43.52962 | 7.83884 | 33011 ft | 406 kts | 69° |
| 2026-05-06 04:21 | 43.53702 | 7.87530 | 32954 ft | 385 kts | 98° |
| 2026-05-06 04:22 | 43.53390 | 7.90963 | 32509 ft | 348 kts | 125° |
| 2026-05-06 04:22 | 43.52026 | 7.93371 | 31397 ft | 301 kts | 173° |
| 2026-05-06 04:22 | 43.50178 | 7.93089 | 28623 ft | 286 kts | 230° |
| 2026-05-06 04:23 | 43.52089 | 7.89463 | 10868 ft | 409 kts | 39° |
| 2026-05-06 04:23 | 43.52556 | 7.89961 | 9 ft | 6 kts | 56° |
| 2026-05-06 04:23 | 43.52578 | 7.90005 | 8 ft | 6 kts | 56° |
| 2026-05-06 04:23 | 43.52599 | 7.90049 | 7 ft | 5 kts | 56° |
| 2026-05-06 04:24 | 43.52620 | 7.90093 | 7 ft | 6 kts | 56° |
| 2026-05-06 04:24 | 43.52641 | 7.90136 | 7 ft | 5 kts | 56° |
| 2026-05-06 04:24 | 43.52662 | 7.90180 | 7 ft | 6 kts | 56° |
| 2026-05-06 04:24 | 43.52684 | 7.90224 | 7 ft | 5 kts | 56° |
| 2026-05-06 04:25 | 43.52705 | 7.90267 | 8 ft | 6 kts | 56° |
| 2026-05-06 04:25 | 43.52726 | 7.90311 | 7 ft | 5 kts | 56° |
| 2026-05-06 04:25 | 43.52747 | 7.90355 | 7 ft | 6 kts | 56° |
| 2026-05-06 04:25 | 43.52768 | 7.90398 | 7 ft | 5 kts | 56° |
| 2026-05-06 04:26 | 43.52790 | 7.90442 | 7 ft | 6 kts | 56° |
| 2026-05-06 04:26 | 43.52811 | 7.90486 | 7 ft | 5 kts | 56° |
| 2026-05-06 04:26 | 43.52832 | 7.90530 | 7 ft | 5 kts | 56° |
| 2026-05-06 04:26 | 43.52853 | 7.90573 | 7 ft | 5 kts | 56° |
| 2026-05-06 04:27 | 43.52875 | 7.90617 | 7 ft | 5 kts | 56° |
| 2026-05-06 04:27 | 43.52896 | 7.90661 | 7 ft | 5 kts | 56° |
| 2026-05-06 04:27 | 43.52917 | 7.90704 | 7 ft | 5 kts | 56° |
| 2026-05-06 04:27 | 43.52939 | 7.90748 | 8 ft | 5 kts | 56° |
| 2026-05-06 04:28 | 43.52960 | 7.90791 | 7 ft | 6 kts | 56° |
| 2026-05-06 04:28 | 43.52981 | 7.90835 | 7 ft | 5 kts | 56° |
| 2026-05-06 04:28 | 43.53003 | 7.90878 | 7 ft | 5 kts | 56° |
| 2026-05-06 04:28 | 43.53024 | 7.90922 | 7 ft | 6 kts | 56° |
| 2026-05-06 04:29 | 43.53045 | 7.90965 | 7 ft | 6 kts | 56° |
| 2026-05-06 04:29 | 43.53066 | 7.91008 | 7 ft | 5 kts | 56° |
| 2026-05-06 04:29 | 43.53087 | 7.91052 | 7 ft | 5 kts | 56° |
| 2026-05-06 04:29 | 43.53108 | 7.91095 | 7 ft | 5 kts | 56° |
| 2026-05-06 04:30 | 43.53129 | 7.91138 | 7 ft | 5 kts | 56° |
| 2026-05-06 04:30 | 43.53150 | 7.91180 | 7 ft | 5 kts | 56° |
| 2026-05-06 04:30 | 43.53171 | 7.91223 | 8 ft | 5 kts | 56° |
| 2026-05-06 04:30 | 43.53192 | 7.91266 | 7 ft | 5 kts | 56° |
| 2026-05-06 04:31 | 43.53213 | 7.91309 | 10 ft | 5 kts | 56° |